sensor_id;sensor_type;location;lat;lon;timestamp;temperature;humidity
20315;DHT22;10315;50.958;13.080;2023-01-08T00:09:35;5.50;99.90
20315;DHT22;10315;50.958;13.080;2023-01-08T00:19:36;5.60;99.90
20315;DHT22;10315;50.958;13.080;2023-01-08T00:29:42;5.60;99.90
20315;DHT22;10315;50.958;13.080;2023-01-08T00:39:44;5.40;99.90
20315;DHT22;10315;50.958;13.080;2023-01-08T00:49:47;5.40;99.90
20315;DHT22;10315;50.958;13.080;2023-01-08T00:59:48;5.50;99.90
20315;DHT22;10315;50.958;13.080;2023-01-08T01:09:51;5.70;99.90
20315;DHT22;10315;50.958;13.080;2023-01-08T01:19:53;5.60;99.90
20315;DHT22;10315;50.958;13.080;2023-01-08T01:29:56;5.80;99.90
20315;DHT22;10315;50.958;13.080;2023-01-08T01:39:57;5.70;99.90
20315;DHT22;10315;50.958;13.080;2023-01-08T01:50:03;5.50;99.90
20315;DHT22;10315;50.958;13.080;2023-01-08T02:00:07;5.70;99.90
20315;DHT22;10315;50.958;13.080;2023-01-08T02:10:13;5.80;99.90
20315;DHT22;10315;50.958;13.080;2023-01-08T02:20:20;5.80;99.90
20315;DHT22;10315;50.958;13.080;2023-01-08T02:30:26;6.00;99.90
20315;DHT22;10315;50.958;13.080;2023-01-08T02:40:31;6.00;99.90
20315;DHT22;10315;50.958;13.080;2023-01-08T02:50:39;6.00;99.90
20315;DHT22;10315;50.958;13.080;2023-01-08T03:00:43;6.00;99.90
20315;DHT22;10315;50.958;13.080;2023-01-08T03:10:50;5.80;99.90
20315;DHT22;10315;50.958;13.080;2023-01-08T03:20:53;5.70;99.90
20315;DHT22;10315;50.958;13.080;2023-01-08T03:30:57;5.70;99.90
20315;DHT22;10315;50.958;13.080;2023-01-08T03:41:02;5.80;99.90
20315;DHT22;10315;50.958;13.080;2023-01-08T03:51:09;5.80;99.90
20315;DHT22;10315;50.958;13.080;2023-01-08T04:01:10;5.80;99.90
20315;DHT22;10315;50.958;13.080;2023-01-08T04:11:13;5.70;99.90
20315;DHT22;10315;50.958;13.080;2023-01-08T04:21:15;5.60;99.90
20315;DHT22;10315;50.958;13.080;2023-01-08T04:31:18;5.50;99.90
20315;DHT22;10315;50.958;13.080;2023-01-08T04:41:19;5.40;99.90
20315;DHT22;10315;50.958;13.080;2023-01-08T04:51:22;5.50;99.90
20315;DHT22;10315;50.958;13.080;2023-01-08T05:01:26;5.60;99.90
20315;DHT22;10315;50.958;13.080;2023-01-08T05:11:29;5.60;99.90
20315;DHT22;10315;50.958;13.080;2023-01-08T05:21:31;5.70;99.90
20315;DHT22;10315;50.958;13.080;2023-01-08T05:31:34;5.60;99.90
20315;DHT22;10315;50.958;13.080;2023-01-08T05:41:36;5.70;99.90
20315;DHT22;10315;50.958;13.080;2023-01-08T05:51:38;5.70;99.90
20315;DHT22;10315;50.958;13.080;2023-01-08T06:01:40;5.80;99.90
20315;DHT22;10315;50.958;13.080;2023-01-08T06:11:43;5.80;99.90
20315;DHT22;10315;50.958;13.080;2023-01-08T06:21:44;5.70;99.90
20315;DHT22;10315;50.958;13.080;2023-01-08T06:31:47;5.70;99.90
20315;DHT22;10315;50.958;13.080;2023-01-08T06:41:49;5.70;99.90
20315;DHT22;10315;50.958;13.080;2023-01-08T06:51:52;5.60;99.90
20315;DHT22;10315;50.958;13.080;2023-01-08T07:01:53;5.80;99.90
20315;DHT22;10315;50.958;13.080;2023-01-08T07:11:56;6.00;99.90
20315;DHT22;10315;50.958;13.080;2023-01-08T07:21:58;6.00;99.90
20315;DHT22;10315;50.958;13.080;2023-01-08T07:32:02;6.00;99.90
20315;DHT22;10315;50.958;13.080;2023-01-08T07:42:04;6.00;99.90
20315;DHT22;10315;50.958;13.080;2023-01-08T07:52:07;6.00;99.90
20315;DHT22;10315;50.958;13.080;2023-01-08T08:02:09;6.00;99.90
20315;DHT22;10315;50.958;13.080;2023-01-08T08:12:12;6.00;99.90
20315;DHT22;10315;50.958;13.080;2023-01-08T08:22:14;6.10;99.90
20315;DHT22;10315;50.958;13.080;2023-01-08T08:32:17;6.20;99.90
20315;DHT22;10315;50.958;13.080;2023-01-08T08:42:19;6.10;99.90
20315;DHT22;10315;50.958;13.080;2023-01-08T08:52:22;6.20;99.90
20315;DHT22;10315;50.958;13.080;2023-01-08T09:02:23;6.20;99.90
20315;DHT22;10315;50.958;13.080;2023-01-08T09:12:26;6.40;99.90
20315;DHT22;10315;50.958;13.080;2023-01-08T09:22:28;6.40;99.90
20315;DHT22;10315;50.958;13.080;2023-01-08T09:32:31;6.50;99.90
20315;DHT22;10315;50.958;13.080;2023-01-08T09:42:33;6.70;99.90
20315;DHT22;10315;50.958;13.080;2023-01-08T09:52:37;6.90;99.90
20315;DHT22;10315;50.958;13.080;2023-01-08T10:02:39;6.90;99.90
20315;DHT22;10315;50.958;13.080;2023-01-08T10:12:42;7.00;99.90
20315;DHT22;10315;50.958;13.080;2023-01-08T10:22:45;7.30;99.90
20315;DHT22;10315;50.958;13.080;2023-01-08T10:32:51;7.40;99.90
20315;DHT22;10315;50.958;13.080;2023-01-08T10:42:54;7.40;99.90
20315;DHT22;10315;50.958;13.080;2023-01-08T10:52:59;7.50;99.90
20315;DHT22;10315;50.958;13.080;2023-01-08T11:03:03;7.60;99.90
20315;DHT22;10315;50.958;13.080;2023-01-08T11:13:13;7.50;99.90
20315;DHT22;10315;50.958;13.080;2023-01-08T11:23:20;7.50;99.90
20315;DHT22;10315;50.958;13.080;2023-01-08T11:33:25;7.60;99.90
20315;DHT22;10315;50.958;13.080;2023-01-08T11:43:37;7.80;99.90
20315;DHT22;10315;50.958;13.080;2023-01-08T11:53:46;7.90;99.90
20315;DHT22;10315;50.958;13.080;2023-01-08T12:03:52;8.10;99.90
20315;DHT22;10315;50.958;13.080;2023-01-08T12:14:12;8.20;99.90
20315;DHT22;10315;50.958;13.080;2023-01-08T12:24:29;8.30;99.90
20315;DHT22;10315;50.958;13.080;2023-01-08T12:34:44;8.40;99.90
20315;DHT22;10315;50.958;13.080;2023-01-08T12:44:48;8.50;99.90
20315;DHT22;10315;50.958;13.080;2023-01-08T12:54:57;8.60;99.90
20315;DHT22;10315;50.958;13.080;2023-01-08T13:05:25;8.70;99.90
20315;DHT22;10315;50.958;13.080;2023-01-08T13:15:31;8.50;99.90
20315;DHT22;10315;50.958;13.080;2023-01-08T13:25:34;8.60;99.90
20315;DHT22;10315;50.958;13.080;2023-01-08T13:35:38;8.60;99.90
20315;DHT22;10315;50.958;13.080;2023-01-08T13:45:40;8.50;99.90
20315;DHT22;10315;50.958;13.080;2023-01-08T13:55:51;8.40;99.90
20315;DHT22;10315;50.958;13.080;2023-01-08T14:06:05;8.40;99.90
20315;DHT22;10315;50.958;13.080;2023-01-08T14:16:11;8.20;99.90
20315;DHT22;10315;50.958;13.080;2023-01-08T14:26:20;8.30;99.90
20315;DHT22;10315;50.958;13.080;2023-01-08T14:36:25;8.30;99.90
20315;DHT22;10315;50.958;13.080;2023-01-08T14:46:28;8.30;99.90
20315;DHT22;10315;50.958;13.080;2023-01-08T14:56:33;8.10;99.90
20315;DHT22;10315;50.958;13.080;2023-01-08T15:06:36;7.90;99.90
20315;DHT22;10315;50.958;13.080;2023-01-08T15:16:40;7.80;99.90
20315;DHT22;10315;50.958;13.080;2023-01-08T15:26:42;7.80;99.90
20315;DHT22;10315;50.958;13.080;2023-01-08T15:36:45;7.70;99.90
20315;DHT22;10315;50.958;13.080;2023-01-08T15:46:47;7.60;99.90
20315;DHT22;10315;50.958;13.080;2023-01-08T15:56:50;7.60;99.90
20315;DHT22;10315;50.958;13.080;2023-01-08T16:06:52;7.60;99.90
20315;DHT22;10315;50.958;13.080;2023-01-08T16:16:55;7.50;99.90
20315;DHT22;10315;50.958;13.080;2023-01-08T16:26:56;7.50;99.90
20315;DHT22;10315;50.958;13.080;2023-01-08T16:36:59;7.40;99.90
20315;DHT22;10315;50.958;13.080;2023-01-08T16:47:01;7.30;99.90
20315;DHT22;10315;50.958;13.080;2023-01-08T16:57:04;7.30;99.90
20315;DHT22;10315;50.958;13.080;2023-01-08T17:07:05;7.40;99.90
20315;DHT22;10315;50.958;13.080;2023-01-08T17:17:08;7.30;99.90
20315;DHT22;10315;50.958;13.080;2023-01-08T17:27:10;7.30;99.90
20315;DHT22;10315;50.958;13.080;2023-01-08T17:37:13;7.30;99.90
20315;DHT22;10315;50.958;13.080;2023-01-08T17:47:15;7.10;99.90
20315;DHT22;10315;50.958;13.080;2023-01-08T17:57:20;7.00;99.90
20315;DHT22;10315;50.958;13.080;2023-01-08T18:07:22;6.80;99.90
20315;DHT22;10315;50.958;13.080;2023-01-08T18:17:25;6.60;99.90
20315;DHT22;10315;50.958;13.080;2023-01-08T18:27:27;6.30;99.90
20315;DHT22;10315;50.958;13.080;2023-01-08T18:37:31;6.10;99.90
20315;DHT22;10315;50.958;13.080;2023-01-08T18:47:32;5.70;99.90
20315;DHT22;10315;50.958;13.080;2023-01-08T18:57:35;5.70;99.90
20315;DHT22;10315;50.958;13.080;2023-01-08T19:07:38;5.50;99.90
20315;DHT22;10315;50.958;13.080;2023-01-08T19:17:42;5.50;99.90
20315;DHT22;10315;50.958;13.080;2023-01-08T19:27:43;5.30;99.90
20315;DHT22;10315;50.958;13.080;2023-01-08T19:37:48;5.20;99.90
20315;DHT22;10315;50.958;13.080;2023-01-08T19:47:49;5.30;99.90
20315;DHT22;10315;50.958;13.080;2023-01-08T19:57:52;5.30;99.90
20315;DHT22;10315;50.958;13.080;2023-01-08T20:07:54;5.30;99.90
20315;DHT22;10315;50.958;13.080;2023-01-08T20:17:57;5.20;99.90
20315;DHT22;10315;50.958;13.080;2023-01-08T20:27:59;5.10;99.90
20315;DHT22;10315;50.958;13.080;2023-01-08T20:38:02;5.00;99.90
20315;DHT22;10315;50.958;13.080;2023-01-08T20:48:04;4.70;99.90
20315;DHT22;10315;50.958;13.080;2023-01-08T20:58:07;4.80;99.90
20315;DHT22;10315;50.958;13.080;2023-01-08T21:08:09;4.90;99.90
20315;DHT22;10315;50.958;13.080;2023-01-08T21:18:12;4.90;99.90
20315;DHT22;10315;50.958;13.080;2023-01-08T21:28:14;4.90;99.90
20315;DHT22;10315;50.958;13.080;2023-01-08T21:38:16;4.80;99.90
20315;DHT22;10315;50.958;13.080;2023-01-08T21:48:18;5.00;99.90
20315;DHT22;10315;50.958;13.080;2023-01-08T21:58:21;5.10;99.90
20315;DHT22;10315;50.958;13.080;2023-01-08T22:08:22;5.10;99.90
20315;DHT22;10315;50.958;13.080;2023-01-08T22:18:25;5.30;99.90
20315;DHT22;10315;50.958;13.080;2023-01-08T22:28:27;5.40;99.90
20315;DHT22;10315;50.958;13.080;2023-01-08T22:38:30;5.50;99.90
20315;DHT22;10315;50.958;13.080;2023-01-08T22:48:32;5.50;99.90
20315;DHT22;10315;50.958;13.080;2023-01-08T22:58:34;5.60;99.90
20315;DHT22;10315;50.958;13.080;2023-01-08T23:08:36;5.60;99.90
20315;DHT22;10315;50.958;13.080;2023-01-08T23:18:40;5.50;99.90
20315;DHT22;10315;50.958;13.080;2023-01-08T23:28:42;5.50;99.90
20315;DHT22;10315;50.958;13.080;2023-01-08T23:38:46;5.10;99.90
20315;DHT22;10315;50.958;13.080;2023-01-08T23:48:48;5.10;99.90
20315;DHT22;10315;50.958;13.080;2023-01-08T23:58:51;5.30;99.90
